createdAt,value
2022-08-06T00:05:35.078Z,12.60
2022-08-06T00:16:09.768Z,11.30
2022-08-06T00:25:35.397Z,11.90
2022-08-06T00:35:31.277Z,9.80
2022-08-06T00:45:31.797Z,10.90
2022-08-06T00:55:32.295Z,9.20
2022-08-06T01:06:04.647Z,12.80
2022-08-06T01:16:07.419Z,13.20
2022-08-06T01:25:46.657Z,15.10
2022-08-06T01:35:47.803Z,17.90
2022-08-06T01:45:42.238Z,22.40
2022-08-06T01:55:42.615Z,22.20
2022-08-06T02:05:32.111Z,23.20
2022-08-06T02:15:56.549Z,17.60
2022-08-06T02:25:31.336Z,19.60
2022-08-06T02:35:31.332Z,18.00
2022-08-06T02:55:34.244Z,15.20
2022-08-06T03:05:56.151Z,14.50
2022-08-06T03:15:58.339Z,18.80
2022-08-06T03:25:31.447Z,15.00
2022-08-06T03:35:50.576Z,11.60
2022-08-06T03:45:45.315Z,12.40
2022-08-06T03:55:31.352Z,10.80
2022-08-06T04:05:31.387Z,8.70
2022-08-06T04:15:31.356Z,10.80
2022-08-06T04:25:31.362Z,10.40
2022-08-06T04:36:08.214Z,9.90
2022-08-06T04:46:17.677Z,8.00
2022-08-06T04:55:33.303Z,6.60
2022-08-06T05:05:31.404Z,7.20
2022-08-06T05:15:31.651Z,7.60
2022-08-06T05:25:35.717Z,6.30
2022-08-06T05:35:40.239Z,7.30
2022-08-06T05:45:31.396Z,7.20
2022-08-06T05:55:38.666Z,6.60
2022-08-06T06:06:04.370Z,8.00
2022-08-06T06:16:00.210Z,8.50
2022-08-06T06:25:31.404Z,8.70
2022-08-06T06:35:32.635Z,8.10
2022-08-06T06:46:07.250Z,10.80
2022-08-06T06:55:57.396Z,11.20
2022-08-06T07:06:05.472Z,9.30
2022-08-06T07:15:31.424Z,9.70
2022-08-06T07:25:31.427Z,8.90
2022-08-06T07:35:31.438Z,10.50
2022-08-06T07:45:32.419Z,10.20
2022-08-06T07:55:39.840Z,9.10
2022-08-06T08:05:39.397Z,9.20
2022-08-06T08:15:31.453Z,10.60
2022-08-06T08:25:42.381Z,10.00
2022-08-06T08:35:31.453Z,9.30
2022-08-06T08:45:33.558Z,8.20
2022-08-06T08:57:08.863Z,7.60
2022-08-06T09:05:34.385Z,6.80
2022-08-06T09:15:33.060Z,8.00
2022-08-06T09:25:31.469Z,7.00
2022-08-06T09:35:42.914Z,7.60
2022-08-06T09:45:42.782Z,7.10
2022-08-06T09:55:31.499Z,6.90
2022-08-06T10:05:31.540Z,6.10
2022-08-06T10:15:58.106Z,5.20
2022-08-06T10:25:38.461Z,8.50
2022-08-06T10:35:31.514Z,5.80
2022-08-06T10:45:47.115Z,4.50
2022-08-06T10:55:37.569Z,3.90
2022-08-06T11:05:48.156Z,4.20
2022-08-06T11:15:37.826Z,7.30
2022-08-06T11:25:31.530Z,5.60
2022-08-06T11:35:31.537Z,5.10
2022-08-06T11:46:20.451Z,4.40
2022-08-06T11:55:31.546Z,6.00
2022-08-06T12:05:31.584Z,4.50
2022-08-06T12:16:00.056Z,6.10
2022-08-06T12:25:31.566Z,3.60
2022-08-06T12:35:31.574Z,4.00
2022-08-06T12:45:32.984Z,5.70
2022-08-06T12:55:31.581Z,4.00
2022-08-06T13:05:31.616Z,4.80
2022-08-06T13:15:31.673Z,6.20
2022-08-06T13:25:52.194Z,4.30
2022-08-06T13:35:32.735Z,5.80
2022-08-06T13:45:56.438Z,4.50
2022-08-06T13:56:00.305Z,5.70
2022-08-06T14:05:31.688Z,4.80
2022-08-06T14:15:31.606Z,4.60
2022-08-06T14:25:52.324Z,3.50
2022-08-06T14:35:39.813Z,4.00
2022-08-06T14:45:39.179Z,4.50
2022-08-06T14:55:31.633Z,5.50
2022-08-06T15:05:41.559Z,3.70
2022-08-06T15:15:36.657Z,4.60
2022-08-06T15:26:00.190Z,6.20
2022-08-06T15:35:43.595Z,3.40
2022-08-06T15:45:51.428Z,4.50
2022-08-06T15:55:32.008Z,3.70
2022-08-06T16:05:32.578Z,4.60
2022-08-06T16:15:34.328Z,3.80
2022-08-06T16:25:40.712Z,4.00
2022-08-06T16:35:33.220Z,3.40
2022-08-06T16:45:37.356Z,3.30
2022-08-06T16:55:31.872Z,2.80
2022-08-06T17:05:44.878Z,2.80
2022-08-06T17:15:36.496Z,4.20
2022-08-06T17:25:51.489Z,4.60
2022-08-06T17:36:31.851Z,4.20
2022-08-06T17:45:31.715Z,2.90
2022-08-06T17:55:37.468Z,5.00
2022-08-06T18:05:36.416Z,12.20
2022-08-06T18:15:40.241Z,7.80
2022-08-06T18:25:54.568Z,3.30
2022-08-06T18:35:33.646Z,5.30
2022-08-06T18:45:31.745Z,3.50
2022-08-06T18:55:58.788Z,4.20
2022-08-06T19:05:31.782Z,4.30
2022-08-06T19:15:44.861Z,5.30
2022-08-06T19:25:41.878Z,3.90
2022-08-06T19:36:11.848Z,3.30
2022-08-06T19:46:30.302Z,4.70
2022-08-06T19:56:08.905Z,5.70
2022-08-06T20:06:17.875Z,6.80
2022-08-06T20:15:31.781Z,7.20
2022-08-06T20:25:40.715Z,3.90
2022-08-06T20:35:32.414Z,4.30
2022-08-06T20:45:57.418Z,5.10
2022-08-06T20:55:41.426Z,4.90
2022-08-06T21:05:46.866Z,10.70
2022-08-06T21:15:53.904Z,4.90
2022-08-06T21:25:39.739Z,5.30
2022-08-06T21:35:31.822Z,5.60
2022-08-06T21:45:50.389Z,8.90
2022-08-06T22:06:20.389Z,12.50
2022-08-06T22:15:45.268Z,8.20
2022-08-06T22:25:31.814Z,6.10
2022-08-06T22:35:38.536Z,7.30
2022-08-06T22:46:00.322Z,10.40
2022-08-06T22:55:34.927Z,8.90
2022-08-06T23:05:31.874Z,6.00
2022-08-06T23:15:40.541Z,4.10
2022-08-06T23:25:59.961Z,5.60
2022-08-06T23:35:35.181Z,6.20
2022-08-06T23:45:32.080Z,4.50
2022-08-06T23:55:35.021Z,4.00
